createdAt,value
2023-02-14T00:01:50.901Z,103642.16
2023-02-14T00:04:20.843Z,103650.63
2023-02-14T00:06:49.294Z,103642.38
2023-02-14T00:09:20.181Z,103644.63
2023-02-14T00:11:48.757Z,103651.09
2023-02-14T00:14:36.562Z,103644.66
2023-02-14T00:17:05.072Z,103651.94
2023-02-14T00:19:34.734Z,103654.19
2023-02-14T00:22:03.647Z,103653.59
2023-02-14T00:24:32.371Z,103651.53
2023-02-14T00:27:01.070Z,103652.84
2023-02-14T00:29:33.329Z,103658.69
2023-02-14T00:32:02.209Z,103652.59
2023-02-14T00:34:30.643Z,103651.69
2023-02-14T00:36:59.120Z,103649.75
2023-02-14T00:39:27.542Z,103640.97
2023-02-14T00:41:55.886Z,103635.56
2023-02-14T00:44:25.132Z,103638.16
2023-02-14T00:46:54.976Z,103637.13
2023-02-14T00:49:23.321Z,103639.72
2023-02-14T00:51:51.781Z,103637.13
2023-02-14T00:54:20.028Z,103637.13
2023-02-14T00:56:48.427Z,103639.72
2023-02-14T00:59:16.924Z,103637.13
2023-02-14T01:01:45.298Z,103638.16
2023-02-14T01:04:15.040Z,103633.22
2023-02-14T01:06:43.333Z,103628.25
2023-02-14T01:09:11.646Z,103626.84
2023-02-14T01:11:41.620Z,103628.75
2023-02-14T01:14:10.380Z,103626.31
2023-02-14T01:16:40.303Z,103616.06
2023-02-14T01:19:09.337Z,103616.06
2023-02-14T01:21:39.059Z,103622.00
2023-02-14T01:24:09.499Z,103620.31
2023-02-14T01:26:38.258Z,103612.31
2023-02-14T01:29:07.117Z,103616.59
2023-02-14T01:31:37.075Z,103624.47
2023-02-14T01:34:05.976Z,103617.63
2023-02-14T01:36:39.347Z,103616.59
2023-02-14T01:39:12.331Z,103615.81
2023-02-14T01:41:42.473Z,103623.34
2023-02-14T01:44:57.999Z,103627.38
2023-02-14T01:47:28.812Z,103617.69
2023-02-14T01:50:02.461Z,103622.84
2023-02-14T01:52:36.929Z,103616.66
2023-02-14T01:55:09.978Z,103618.34
2023-02-14T01:57:45.126Z,103619.22
2023-02-14T02:00:33.757Z,103612.38
2023-02-14T02:03:04.733Z,103613.28
2023-02-14T02:05:33.334Z,103612.50
2023-02-14T02:08:03.319Z,103603.97
2023-02-14T02:10:31.776Z,103603.16
2023-02-14T02:13:09.186Z,103593.72
2023-02-14T02:15:47.784Z,103599.78
2023-02-14T02:18:25.174Z,103588.53
2023-02-14T02:21:56.006Z,103584.16
2023-02-14T02:24:36.005Z,103580.00
2023-02-14T02:27:27.101Z,103578.44
2023-02-14T02:30:40.972Z,103582.16
2023-02-14T02:34:21.065Z,103581.25
2023-02-14T02:37:19.674Z,103576.09
2023-02-14T02:40:05.964Z,103583.97
2023-02-14T02:42:47.463Z,103582.41
2023-02-14T02:45:27.457Z,103579.16
2023-02-14T02:48:06.817Z,103572.28
2023-02-14T02:50:59.756Z,103568.91
2023-02-14T02:53:35.984Z,103568.91
2023-02-14T02:56:28.511Z,103567.34
2023-02-14T02:59:01.287Z,103561.03
2023-02-14T03:01:35.106Z,103562.69
2023-02-14T03:04:29.382Z,103566.88
2023-02-14T03:06:58.478Z,103571.81
2023-02-14T03:09:57.796Z,103561.97
2023-02-14T03:13:06.455Z,103568.84
2023-02-14T03:15:59.072Z,103564.34
2023-02-14T03:19:03.131Z,103558.13
2023-02-14T03:21:39.117Z,103559.97
2023-02-14T03:24:17.240Z,103559.97
2023-02-14T03:26:51.419Z,103555.78
2023-02-14T03:29:30.889Z,103554.88
2023-02-14T03:32:06.294Z,103548.81
2023-02-14T03:34:48.721Z,103550.50
2023-02-14T03:37:22.909Z,103553.75
2023-02-14T03:40:01.324Z,103552.72
2023-02-14T03:42:36.960Z,103555.97
2023-02-14T03:45:10.323Z,103566.97
2023-02-14T03:47:42.567Z,103559.09
2023-02-14T03:50:16.037Z,103561.56
2023-02-14T03:52:46.089Z,103559.78
2023-02-14T03:55:18.591Z,103548.50
2023-02-14T03:57:58.045Z,103554.59
2023-02-14T04:00:26.953Z,103551.22
2023-02-14T04:03:01.142Z,103544.47
2023-02-14T04:05:30.018Z,103536.84
2023-02-14T04:08:00.374Z,103544.69
2023-02-14T04:10:28.901Z,103537.88
2023-02-14T04:12:58.697Z,103539.78
2023-02-14T04:15:27.043Z,103537.97
2023-02-14T04:18:13.171Z,103535.38
2023-02-14T04:20:41.485Z,103529.19
2023-02-14T04:23:09.747Z,103537.75
2023-02-14T04:25:40.192Z,103525.56
2023-02-14T04:28:10.016Z,103527.16
2023-02-14T04:30:38.475Z,103520.97
2023-02-14T04:33:08.044Z,103515.50
2023-02-14T04:35:36.933Z,103525.78
2023-02-14T04:38:06.390Z,103523.94
2023-02-14T04:40:34.715Z,103523.06
2023-02-14T04:43:04.684Z,103527.34
2023-02-14T04:45:34.508Z,103520.34
2023-02-14T04:48:02.859Z,103527.19
2023-02-14T04:50:31.423Z,103523.59
2023-02-14T04:52:59.837Z,103525.28
2023-02-14T04:55:28.138Z,103527.72
2023-02-14T04:57:56.361Z,103522.34
2023-02-14T05:00:24.859Z,103518.72
2023-02-14T05:02:54.635Z,103517.69
2023-02-14T05:05:23.262Z,103525.44
2023-02-14T05:07:51.595Z,103517.69
2023-02-14T05:10:20.240Z,103519.59
2023-02-14T05:12:48.509Z,103520.50
2023-02-14T05:15:16.984Z,103515.31
2023-02-14T05:17:45.296Z,103515.22
2023-02-14T05:20:15.375Z,103509.94
2023-02-14T05:22:43.615Z,103506.31
2023-02-14T05:25:12.101Z,103511.34
2023-02-14T05:27:40.451Z,103501.66
2023-02-14T05:30:11.006Z,103504.81
2023-02-14T05:32:39.442Z,103506.38
2023-02-14T05:35:08.617Z,103505.34
2023-02-14T05:37:38.613Z,103502.63
2023-02-14T05:40:09.306Z,103502.41
2023-02-14T05:42:37.604Z,103506.41
2023-02-14T05:45:07.142Z,103513.16
2023-02-14T05:47:35.675Z,103502.56
2023-02-14T05:50:04.383Z,103493.78
2023-02-14T05:52:32.798Z,103499.72
2023-02-14T05:55:02.489Z,103494.53
2023-02-14T05:57:30.816Z,103490.16
2023-02-14T05:59:59.132Z,103484.19
2023-02-14T06:02:27.593Z,103485.88
2023-02-14T06:04:56.055Z,103492.75
2023-02-14T06:07:24.612Z,103485.78
2023-02-14T06:09:53.084Z,103489.28
2023-02-14T06:12:22.846Z,103482.41
2023-02-14T06:14:51.186Z,103480.06
2023-02-14T06:17:19.609Z,103482.91
2023-02-14T06:19:47.962Z,103491.69
2023-02-14T06:22:16.486Z,103488.84
2023-02-14T06:24:45.178Z,103487.94
2023-02-14T06:27:13.448Z,103484.47
2023-02-14T06:29:43.118Z,103494.00
2023-02-14T06:32:11.539Z,103497.41
2023-02-14T06:34:41.025Z,103498.94
2023-02-14T06:37:09.603Z,103500.50
2023-02-14T06:39:38.222Z,103494.19
2023-02-14T06:42:06.762Z,103493.94
2023-02-14T06:44:35.068Z,103498.88
2023-02-14T06:47:05.292Z,103495.25
2023-02-14T06:49:33.558Z,103494.09
2023-02-14T06:52:01.941Z,103497.47
2023-02-14T06:54:30.349Z,103495.66
2023-02-14T06:56:58.934Z,103493.88
2023-02-14T06:59:27.335Z,103493.88
2023-02-14T07:01:55.651Z,103498.25
2023-02-14T07:04:25.639Z,103493.06
2023-02-14T07:06:54.026Z,103496.69
2023-02-14T07:09:22.321Z,103505.06
2023-02-14T07:11:51.214Z,103496.66
2023-02-14T07:14:19.506Z,103504.88
2023-02-14T07:16:48.043Z,103507.97
2023-02-14T07:19:16.365Z,103499.81
2023-02-14T07:21:46.050Z,103502.63
2023-02-14T07:24:14.358Z,103502.09
2023-02-14T07:26:42.687Z,103506.63
2023-02-14T07:29:10.994Z,103504.25
2023-02-14T07:31:39.463Z,103505.41
2023-02-14T07:34:10.979Z,103511.75
2023-02-14T07:36:39.480Z,103508.59
2023-02-14T07:39:09.467Z,103511.53
2023-02-14T07:41:38.644Z,103518.78
2023-02-14T07:44:07.006Z,103518.09
2023-02-14T07:46:35.455Z,103511.38
2023-02-14T07:49:04.064Z,103510.81
2023-02-14T07:51:32.456Z,103525.81
2023-02-14T07:54:00.894Z,103518.28
2023-02-14T07:56:30.655Z,103517.75
2023-02-14T07:58:59.180Z,103517.97
2023-02-14T08:01:27.678Z,103516.66
2023-02-14T08:03:56.145Z,103515.31
2023-02-14T08:06:26.055Z,103518.28
2023-02-14T08:08:54.782Z,103517.81
2023-02-14T08:11:40.666Z,103511.34
2023-02-14T08:14:10.412Z,103518.78
2023-02-14T08:16:39.893Z,103519.25
2023-02-14T08:19:08.424Z,103520.72
2023-02-14T08:21:36.824Z,103505.66
2023-02-14T08:24:05.620Z,103512.19
2023-02-14T08:26:33.898Z,103500.47
2023-02-14T08:29:03.524Z,103507.81
2023-02-14T08:31:36.076Z,103513.22
2023-02-14T08:34:05.801Z,103512.66
2023-02-14T08:36:34.449Z,103510.75
2023-02-14T08:39:04.922Z,103514.03
2023-02-14T08:41:33.518Z,103514.78
2023-02-14T08:44:02.178Z,103513.22
2023-02-14T08:46:32.273Z,103514.38
2023-02-14T08:49:00.626Z,103518.19
2023-02-14T08:51:29.501Z,103514.13
2023-02-14T08:53:57.870Z,103508.16
2023-02-14T08:56:26.256Z,103511.66
2023-02-14T08:58:55.598Z,103502.28
2023-02-14T09:01:24.076Z,103509.19
2023-02-14T09:03:53.831Z,103505.78
2023-02-14T09:06:22.415Z,103505.00
2023-02-14T09:08:51.943Z,103507.81
2023-02-14T09:11:22.694Z,103497.66
2023-02-14T09:13:53.154Z,103503.31
2023-02-14T09:16:23.255Z,103500.38
2023-02-14T09:18:53.306Z,103500.81
2023-02-14T09:21:26.159Z,103501.50
2023-02-14T09:23:54.625Z,103502.16
2023-02-14T09:26:23.577Z,103505.41
2023-02-14T09:28:52.024Z,103501.66
2023-02-14T09:31:23.319Z,103498.72
2023-02-14T09:34:11.270Z,103507.97
2023-02-14T09:36:39.618Z,103493.72
2023-02-14T09:39:07.989Z,103500.25
2023-02-14T09:42:07.437Z,103491.84
2023-02-14T09:44:41.083Z,103487.09
2023-02-14T09:47:21.865Z,103487.41
2023-02-14T09:49:53.428Z,103483.53
2023-02-14T09:52:28.324Z,103487.66
2023-02-14T09:55:02.759Z,103487.31
2023-02-14T09:57:45.109Z,103484.41
2023-02-14T10:00:24.920Z,103482.47
2023-02-14T10:03:04.585Z,103479.34
2023-02-14T10:05:39.835Z,103479.06
2023-02-14T10:08:22.172Z,103479.56
2023-02-14T10:10:55.395Z,103475.69
2023-02-14T10:13:33.010Z,103471.91
2023-02-14T10:16:06.728Z,103474.09
2023-02-14T10:18:41.571Z,103478.13
2023-02-14T10:21:18.664Z,103471.69
2023-02-14T10:23:52.490Z,103467.91
2023-02-14T10:26:29.351Z,103472.91
2023-02-14T10:28:57.674Z,103467.19
2023-02-14T10:31:28.534Z,103480.97
2023-02-14T10:34:03.530Z,103474.69
2023-02-14T10:37:03.629Z,103486.44
2023-02-14T10:39:59.604Z,103473.00
2023-02-14T10:42:38.744Z,103479.44
2023-02-14T10:45:19.635Z,103481.59
2023-02-14T10:47:59.080Z,103478.56
2023-02-14T10:50:33.472Z,103471.41
2023-02-14T10:53:17.117Z,103466.66
2023-02-14T10:55:52.223Z,103460.13
2023-02-14T10:58:22.969Z,103457.00
2023-02-14T11:01:01.992Z,103453.13
2023-02-14T11:03:31.819Z,103447.38
2023-02-14T11:06:00.293Z,103455.66
2023-02-14T11:08:37.141Z,103445.59
2023-02-14T11:11:18.934Z,103447.75
2023-02-14T11:13:47.593Z,103445.50
2023-02-14T11:16:31.292Z,103441.59
2023-02-14T11:19:22.298Z,103441.97
2023-02-14T11:21:53.012Z,103435.41
2023-02-14T11:24:31.286Z,103432.53
2023-02-14T11:27:02.281Z,103432.94
2023-02-14T11:29:36.956Z,103426.25
2023-02-14T11:32:10.955Z,103434.53
2023-02-14T11:34:42.692Z,103425.50
2023-02-14T11:37:29.209Z,103414.56
2023-02-14T11:40:01.582Z,103406.34
2023-02-14T11:42:46.553Z,103405.94
2023-02-14T11:45:34.004Z,103397.03
2023-02-14T11:48:24.814Z,103383.03
2023-02-14T11:51:00.277Z,103377.47
2023-02-14T11:53:31.431Z,103383.25
2023-02-14T11:56:01.380Z,103371.53
2023-02-14T11:58:38.578Z,103378.31
2023-02-14T12:01:07.749Z,103371.91
2023-02-14T12:03:44.352Z,103367.13
2023-02-14T12:06:13.909Z,103366.78
2023-02-14T12:08:43.226Z,103378.66
2023-02-14T12:11:23.584Z,103368.66
2023-02-14T12:13:56.255Z,103367.44
2023-02-14T12:16:31.638Z,103355.53
2023-02-14T12:19:04.217Z,103350.78
2023-02-14T12:21:49.031Z,103349.44
2023-02-14T12:24:32.565Z,103341.03
2023-02-14T12:27:15.739Z,103335.41
2023-02-14T12:29:50.821Z,103336.91
2023-02-14T12:32:24.918Z,103332.28
2023-02-14T12:34:59.570Z,103335.50
2023-02-14T12:37:42.429Z,103324.78
2023-02-14T12:40:23.115Z,103334.16
2023-02-14T12:43:26.972Z,103327.75
2023-02-14T12:46:16.169Z,103321.34
2023-02-14T12:49:10.450Z,103315.78
2023-02-14T12:51:46.864Z,103318.91
2023-02-14T12:54:40.512Z,103308.09
2023-02-14T12:57:24.490Z,103300.75
2023-02-14T13:00:07.751Z,103299.59
2023-02-14T13:03:21.912Z,103293.81
2023-02-14T13:05:59.853Z,103283.84
2023-02-14T13:08:44.783Z,103282.44
2023-02-14T13:11:24.296Z,103283.00
2023-02-14T13:14:04.618Z,103279.03
2023-02-14T13:16:42.891Z,103274.47
2023-02-14T13:19:25.730Z,103269.38
2023-02-14T13:21:56.085Z,103271.78
2023-02-14T13:24:28.789Z,103263.41
2023-02-14T13:27:01.528Z,103259.38
2023-02-14T13:29:41.915Z,103253.19
2023-02-14T13:32:16.962Z,103243.25
2023-02-14T13:34:48.068Z,103243.72
2023-02-14T13:37:20.759Z,103243.34
2023-02-14T13:39:54.936Z,103233.03
2023-02-14T13:42:57.603Z,103238.81
2023-02-14T13:46:05.111Z,103247.03
2023-02-14T13:48:36.379Z,103246.63
2023-02-14T13:51:08.717Z,103253.44
2023-02-14T13:53:40.986Z,103253.00
2023-02-14T13:56:41.794Z,103255.09
2023-02-14T13:59:29.202Z,103254.00
2023-02-14T14:01:58.061Z,103251.38
2023-02-14T14:04:38.862Z,103252.19
2023-02-14T14:07:30.112Z,103239.03
2023-02-14T14:10:04.542Z,103241.88
2023-02-14T14:12:46.339Z,103239.53
2023-02-14T14:15:20.510Z,103240.78
2023-02-14T14:18:29.765Z,103236.56
2023-02-14T14:20:59.562Z,103231.72
2023-02-14T14:23:38.567Z,103225.25
2023-02-14T14:26:31.723Z,103224.03
2023-02-14T14:29:00.565Z,103220.28
2023-02-14T14:31:30.785Z,103225.28
2023-02-14T14:34:02.044Z,103218.00
2023-02-14T14:36:31.738Z,103219.53
2023-02-14T14:39:00.205Z,103213.22
2023-02-14T14:41:31.237Z,103211.16
2023-02-14T14:44:01.053Z,103218.00
2023-02-14T14:46:29.744Z,103216.97
2023-02-14T14:48:58.971Z,103211.72
2023-02-14T14:51:31.447Z,103208.13
2023-02-14T14:54:03.382Z,103210.59
2023-02-14T14:56:34.867Z,103200.00
2023-02-14T14:59:20.528Z,103203.38
2023-02-14T15:01:50.064Z,103213.75
2023-02-14T15:04:21.031Z,103204.03
2023-02-14T15:06:51.228Z,103204.78
2023-02-14T15:09:24.308Z,103197.56
2023-02-14T15:12:12.154Z,103202.66
2023-02-14T15:14:46.161Z,103191.94
2023-02-14T15:17:21.328Z,103197.16
2023-02-14T15:19:54.285Z,103184.84
2023-02-14T15:22:29.535Z,103190.78
2023-02-14T15:24:59.826Z,103189.84
2023-02-14T15:27:29.995Z,103188.72
2023-02-14T15:30:00.835Z,103184.22
2023-02-14T15:32:34.052Z,103177.88
2023-02-14T15:35:06.408Z,103181.28
2023-02-14T15:37:36.575Z,103176.75
2023-02-14T15:40:08.830Z,103176.66
2023-02-14T15:42:43.076Z,103173.03
2023-02-14T15:45:23.754Z,103166.78
2023-02-14T15:47:54.958Z,103166.63
2023-02-14T15:50:26.188Z,103170.81
2023-02-14T15:53:01.294Z,103174.97
2023-02-14T15:55:30.120Z,103173.03
2023-02-14T15:58:01.153Z,103179.78
2023-02-14T16:00:31.645Z,103183.00
2023-02-14T16:03:03.911Z,103183.53
2023-02-14T16:05:32.431Z,103174.47
2023-02-14T16:08:05.437Z,103172.44
2023-02-14T16:10:36.751Z,103181.72
2023-02-14T16:13:09.314Z,103183.97
2023-02-14T16:15:42.129Z,103181.84
2023-02-14T16:18:31.926Z,103180.50
2023-02-14T16:21:17.876Z,103185.31
2023-02-14T16:23:49.575Z,103178.03
2023-02-14T16:26:17.970Z,103182.00
2023-02-14T16:28:46.533Z,103187.75
2023-02-14T16:31:17.820Z,103185.56
2023-02-14T16:33:46.252Z,103173.75
2023-02-14T16:36:21.660Z,103184.59
2023-02-14T16:38:52.957Z,103179.72
2023-02-14T16:41:24.209Z,103177.41
2023-02-14T16:43:52.717Z,103172.53
2023-02-14T16:46:24.561Z,103175.50
2023-02-14T16:48:53.514Z,103179.44
2023-02-14T16:51:26.289Z,103171.84
2023-02-14T16:53:58.326Z,103179.94
2023-02-14T16:56:35.185Z,103174.84
2023-02-14T16:59:03.519Z,103172.63
2023-02-14T17:01:32.968Z,103161.75
2023-02-14T17:04:01.364Z,103179.50
2023-02-14T17:06:32.404Z,103177.25
2023-02-14T17:09:08.272Z,103179.22
2023-02-14T17:11:39.569Z,103182.28
2023-02-14T17:14:08.513Z,103177.34
2023-02-14T17:16:36.931Z,103183.88
2023-02-14T17:19:05.503Z,103183.25
2023-02-14T17:21:35.608Z,103176.56
2023-02-14T17:24:05.930Z,103182.28
2023-02-14T17:26:34.258Z,103186.19
2023-02-14T17:29:02.590Z,103181.63
2023-02-14T17:31:30.987Z,103175.38
2023-02-14T17:33:59.314Z,103183.13
2023-02-14T17:36:27.866Z,103177.75
2023-02-14T17:38:56.496Z,103181.88
2023-02-14T17:41:29.294Z,103192.06
2023-02-14T17:44:00.395Z,103193.34
2023-02-14T17:46:30.251Z,103188.53
2023-02-14T17:49:02.518Z,103183.81
2023-02-14T17:51:31.136Z,103188.63
2023-02-14T17:53:59.526Z,103190.78
2023-02-14T17:56:29.335Z,103196.56
2023-02-14T17:58:57.826Z,103194.44
2023-02-14T18:01:31.343Z,103193.28
2023-02-14T18:04:00.060Z,103192.75
2023-02-14T18:06:28.617Z,103202.84
2023-02-14T18:08:57.726Z,103192.88
2023-02-14T18:11:29.365Z,103195.13
2023-02-14T18:13:59.665Z,103189.47
2023-02-14T18:16:28.231Z,103195.22
2023-02-14T18:18:56.601Z,103192.25
2023-02-14T18:21:25.441Z,103192.81
2023-02-14T18:23:53.899Z,103191.63
2023-02-14T18:26:22.358Z,103185.19
2023-02-14T18:28:52.026Z,103189.03
2023-02-14T18:31:21.783Z,103189.66
2023-02-14T18:33:52.024Z,103193.69
2023-02-14T18:36:24.296Z,103189.94
2023-02-14T18:38:52.879Z,103187.81
2023-02-14T18:41:21.905Z,103186.81
2023-02-14T18:43:52.005Z,103175.34
2023-02-14T18:46:23.648Z,103179.47
2023-02-14T18:48:53.016Z,103179.19
2023-02-14T18:51:24.717Z,103181.34
2023-02-14T18:53:54.617Z,103164.25
2023-02-14T18:56:27.205Z,103166.69
2023-02-14T18:58:59.726Z,103162.00
2023-02-14T19:01:30.872Z,103162.53
2023-02-14T19:04:01.492Z,103160.53
2023-02-14T19:06:32.407Z,103162.97
2023-02-14T19:09:01.551Z,103154.97
2023-02-14T19:11:32.831Z,103148.75
2023-02-14T19:14:09.385Z,103160.69
2023-02-14T19:16:42.113Z,103154.38
2023-02-14T19:19:11.181Z,103150.78
2023-02-14T19:21:39.511Z,103148.84
2023-02-14T19:24:09.141Z,103151.84
2023-02-14T19:26:40.949Z,103154.25
2023-02-14T19:29:14.244Z,103146.28
2023-02-14T19:31:45.237Z,103142.69
2023-02-14T19:34:18.716Z,103148.66
2023-02-14T19:36:48.036Z,103156.16
2023-02-14T19:39:17.414Z,103144.59
2023-02-14T19:41:46.389Z,103147.72
2023-02-14T19:44:17.923Z,103139.72
2023-02-14T19:46:48.594Z,103139.53
2023-02-14T19:49:19.411Z,103139.31
2023-02-14T19:51:49.362Z,103143.31
2023-02-14T19:54:17.994Z,103144.03
2023-02-14T19:56:48.144Z,103138.53
2023-02-14T19:59:20.298Z,103138.16
2023-02-14T20:01:51.047Z,103130.97
2023-02-14T20:04:22.115Z,103131.78
2023-02-14T20:06:51.553Z,103128.97
2023-02-14T20:09:21.973Z,103129.69
2023-02-14T20:11:54.507Z,103124.38
2023-02-14T20:14:27.244Z,103127.69
2023-02-14T20:16:58.565Z,103125.69
2023-02-14T20:19:29.682Z,103120.19
2023-02-14T20:21:58.069Z,103117.41
2023-02-14T20:24:29.061Z,103119.00
2023-02-14T20:26:58.596Z,103117.91
2023-02-14T20:29:28.656Z,103113.22
2023-02-14T20:32:00.052Z,103117.41
2023-02-14T20:34:29.192Z,103115.59
2023-02-14T20:36:59.280Z,103114.50
2023-02-14T20:39:32.201Z,103110.81
2023-02-14T20:42:00.804Z,103110.63
2023-02-14T20:44:30.856Z,103110.41
2023-02-14T20:46:59.323Z,103110.22
2023-02-14T20:49:30.744Z,103104.13
2023-02-14T20:52:00.107Z,103099.63
2023-02-14T20:54:30.346Z,103099.41
2023-02-14T20:56:58.980Z,103095.81
2023-02-14T20:59:28.935Z,103090.44
2023-02-14T21:02:00.207Z,103093.84
2023-02-14T21:04:29.662Z,103092.72
2023-02-14T21:07:00.357Z,103089.84
2023-02-14T21:09:28.913Z,103087.81
2023-02-14T21:11:58.436Z,103089.66
2023-02-14T21:14:26.937Z,103086.94
2023-02-14T21:16:55.506Z,103080.88
2023-02-14T21:19:26.803Z,103084.47
2023-02-14T21:21:55.496Z,103091.44
2023-02-14T21:24:24.409Z,103081.06
2023-02-14T21:26:53.024Z,103080.88
2023-02-14T21:29:21.802Z,103079.63
2023-02-14T21:31:50.417Z,103075.06
2023-02-14T21:34:19.224Z,103065.16
2023-02-14T21:36:49.117Z,103069.22
2023-02-14T21:39:17.655Z,103063.66
2023-02-14T21:41:46.182Z,103061.66
2023-02-14T21:44:41.493Z,103065.03
2023-02-14T21:47:10.140Z,103063.13
2023-02-14T21:49:56.073Z,103065.63
2023-02-14T21:52:26.072Z,103061.03
2023-02-14T21:54:54.468Z,103065.00
2023-02-14T21:57:23.183Z,103070.97
2023-02-14T21:59:51.700Z,103067.47
2023-02-14T22:02:20.201Z,103063.88
2023-02-14T22:04:48.874Z,103060.19
2023-02-14T22:07:17.298Z,103058.28
2023-02-14T22:09:47.416Z,103058.84
2023-02-14T22:12:15.829Z,103062.13
2023-02-14T22:14:44.213Z,103056.88
2023-02-14T22:17:12.665Z,103056.75
2023-02-14T22:19:41.401Z,103052.16
2023-02-14T22:22:09.987Z,103052.84
2023-02-14T22:24:38.429Z,103054.22
2023-02-14T22:27:08.370Z,103052.31
2023-02-14T22:29:37.017Z,103045.03
2023-02-14T22:32:05.968Z,103052.31
2023-02-14T22:34:35.716Z,103045.22
2023-02-14T22:37:04.146Z,103051.91
2023-02-14T22:39:32.934Z,103043.69
2023-02-14T22:42:05.449Z,103043.59
2023-02-14T22:44:35.437Z,103046.06
2023-02-14T22:47:03.863Z,103041.47
2023-02-14T22:49:32.815Z,103042.16
2023-02-14T22:52:01.368Z,103046.44
2023-02-14T22:54:30.438Z,103040.25
2023-02-14T22:56:59.923Z,103038.34
2023-02-14T22:59:32.121Z,103044.44
2023-02-14T23:02:02.740Z,103041.72
2023-02-14T23:04:31.665Z,103038.81
2023-02-14T23:07:00.145Z,103035.34
2023-02-14T23:09:29.015Z,103028.47
2023-02-14T23:11:57.454Z,103032.75
2023-02-14T23:14:43.672Z,103024.88
2023-02-14T23:17:34.850Z,103026.25
2023-02-14T23:20:20.708Z,103026.03
2023-02-14T23:22:49.125Z,103029.06
2023-02-14T23:25:17.737Z,103035.81
2023-02-14T23:27:48.466Z,103034.03
2023-02-14T23:30:20.141Z,103028.53
2023-02-14T23:32:49.997Z,103031.00
2023-02-14T23:35:18.638Z,103025.72
2023-02-14T23:37:47.017Z,103030.00
2023-02-14T23:40:15.585Z,103016.94
2023-02-14T23:42:42.989Z,103015.72
2023-02-14T23:45:28.674Z,103024.38
2023-02-14T23:48:03.422Z,103021.78
2023-02-14T23:50:31.782Z,103015.72
2023-02-14T23:53:00.570Z,103019.09
2023-02-14T23:55:28.958Z,103013.13
2023-02-14T23:57:57.373Z,103007.75
